sensor_id;sensor_type;location;lat;lon;timestamp;temperature;humidity
27314;DHT22;14800;48.174;9.798;2023-06-10T00:01:13;19.80;55.70
27314;DHT22;14800;48.174;9.798;2023-06-10T00:03:38;19.70;55.80
27314;DHT22;14800;48.174;9.798;2023-06-10T00:06:04;19.70;55.90
27314;DHT22;14800;48.174;9.798;2023-06-10T00:08:30;19.60;56.00
27314;DHT22;14800;48.174;9.798;2023-06-10T00:10:56;19.60;56.10
27314;DHT22;14800;48.174;9.798;2023-06-10T00:13:22;19.60;56.10
27314;DHT22;14800;48.174;9.798;2023-06-10T00:15:48;19.60;56.20
27314;DHT22;14800;48.174;9.798;2023-06-10T00:18:13;19.50;56.30
27314;DHT22;14800;48.174;9.798;2023-06-10T00:20:39;19.50;56.30
27314;DHT22;14800;48.174;9.798;2023-06-10T00:23:05;19.50;56.40
27314;DHT22;14800;48.174;9.798;2023-06-10T00:25:35;19.50;56.50
27314;DHT22;14800;48.174;9.798;2023-06-10T00:28:00;19.50;56.50
27314;DHT22;14800;48.174;9.798;2023-06-10T00:30:26;19.50;56.60
27314;DHT22;14800;48.174;9.798;2023-06-10T00:32:52;19.40;56.50
27314;DHT22;14800;48.174;9.798;2023-06-10T00:35:17;19.40;56.60
27314;DHT22;14800;48.174;9.798;2023-06-10T00:37:43;19.40;56.70
27314;DHT22;14800;48.174;9.798;2023-06-10T00:40:09;19.40;56.70
27314;DHT22;14800;48.174;9.798;2023-06-10T00:42:35;19.40;56.80
27314;DHT22;14800;48.174;9.798;2023-06-10T00:45:00;19.40;57.50
27314;DHT22;14800;48.174;9.798;2023-06-10T00:47:27;19.30;57.00
27314;DHT22;14800;48.174;9.798;2023-06-10T00:49:53;19.30;57.10
27314;DHT22;14800;48.174;9.798;2023-06-10T00:52:21;19.30;57.00
27314;DHT22;14800;48.174;9.798;2023-06-10T00:54:48;19.30;57.30
27314;DHT22;14800;48.174;9.798;2023-06-10T00:57:13;19.20;57.40
27314;DHT22;14800;48.174;9.798;2023-06-10T00:59:44;19.10;57.40
27314;DHT22;14800;48.174;9.798;2023-06-10T01:02:11;19.10;57.60
27314;DHT22;14800;48.174;9.798;2023-06-10T01:04:36;19.10;57.70
27314;DHT22;14800;48.174;9.798;2023-06-10T01:07:26;19.00;57.80
27314;DHT22;14800;48.174;9.798;2023-06-10T01:09:59;19.00;58.60
27314;DHT22;14800;48.174;9.798;2023-06-10T01:12:49;19.00;58.00
27314;DHT22;14800;48.174;9.798;2023-06-10T01:15:15;18.90;58.00
27314;DHT22;14800;48.174;9.798;2023-06-10T01:18:13;18.90;58.30
27314;DHT22;14800;48.174;9.798;2023-06-10T01:20:41;18.90;58.90
27314;DHT22;14800;48.174;9.798;2023-06-10T01:23:09;18.90;58.30
27314;DHT22;14800;48.174;9.798;2023-06-10T01:25:38;18.80;58.40
27314;DHT22;14800;48.174;9.798;2023-06-10T01:31:04;18.80;58.50
27314;DHT22;14800;48.174;9.798;2023-06-10T01:33:41;18.70;58.80
27314;DHT22;14800;48.174;9.798;2023-06-10T01:36:08;18.70;58.60
27314;DHT22;14800;48.174;9.798;2023-06-10T01:38:42;18.60;58.50
27314;DHT22;14800;48.174;9.798;2023-06-10T01:41:09;18.60;58.90
27314;DHT22;14800;48.174;9.798;2023-06-10T01:43:38;18.50;58.60
27314;DHT22;14800;48.174;9.798;2023-06-10T01:46:04;18.40;58.70
27314;DHT22;14800;48.174;9.798;2023-06-10T01:48:30;18.40;58.80
27314;DHT22;14800;48.174;9.798;2023-06-10T01:50:55;18.30;58.90
27314;DHT22;14800;48.174;9.798;2023-06-10T01:53:22;18.30;59.00
27314;DHT22;14800;48.174;9.798;2023-06-10T01:55:48;18.30;59.20
27314;DHT22;14800;48.174;9.798;2023-06-10T01:58:13;18.20;59.30
27314;DHT22;14800;48.174;9.798;2023-06-10T02:00:39;18.20;59.40
27314;DHT22;14800;48.174;9.798;2023-06-10T02:03:04;18.10;59.70
27314;DHT22;14800;48.174;9.798;2023-06-10T02:05:30;18.20;59.90
27314;DHT22;14800;48.174;9.798;2023-06-10T02:07:55;18.10;60.00
27314;DHT22;14800;48.174;9.798;2023-06-10T02:10:21;18.10;60.20
27314;DHT22;14800;48.174;9.798;2023-06-10T02:12:47;18.00;60.30
27314;DHT22;14800;48.174;9.798;2023-06-10T02:15:13;18.00;60.50
27314;DHT22;14800;48.174;9.798;2023-06-10T02:17:38;18.00;60.60
27314;DHT22;14800;48.174;9.798;2023-06-10T02:20:05;18.00;60.90
27314;DHT22;14800;48.174;9.798;2023-06-10T02:22:32;18.00;61.00
27314;DHT22;14800;48.174;9.798;2023-06-10T02:24:58;18.00;61.00
27314;DHT22;14800;48.174;9.798;2023-06-10T02:27:24;18.00;61.00
27314;DHT22;14800;48.174;9.798;2023-06-10T02:29:50;18.10;61.00
27314;DHT22;14800;48.174;9.798;2023-06-10T02:32:15;18.10;61.10
27314;DHT22;14800;48.174;9.798;2023-06-10T02:34:42;18.10;61.00
27314;DHT22;14800;48.174;9.798;2023-06-10T02:37:08;18.10;61.00
27314;DHT22;14800;48.174;9.798;2023-06-10T02:39:34;18.00;61.20
27314;DHT22;14800;48.174;9.798;2023-06-10T02:41:59;18.00;61.40
27314;DHT22;14800;48.174;9.798;2023-06-10T02:44:25;18.00;61.50
27314;DHT22;14800;48.174;9.798;2023-06-10T02:46:51;17.90;61.50
27314;DHT22;14800;48.174;9.798;2023-06-10T02:49:17;17.90;62.50
27314;DHT22;14800;48.174;9.798;2023-06-10T02:51:42;17.80;61.90
27314;DHT22;14800;48.174;9.798;2023-06-10T02:54:08;17.90;62.20
27314;DHT22;14800;48.174;9.798;2023-06-10T02:56:33;17.80;62.10
27314;DHT22;14800;48.174;9.798;2023-06-10T02:59:00;17.80;62.20
27314;DHT22;14800;48.174;9.798;2023-06-10T03:01:25;17.80;62.30
27314;DHT22;14800;48.174;9.798;2023-06-10T03:03:51;17.80;62.40
27314;DHT22;14800;48.174;9.798;2023-06-10T03:06:18;17.70;62.40
27314;DHT22;14800;48.174;9.798;2023-06-10T03:08:43;17.70;62.40
27314;DHT22;14800;48.174;9.798;2023-06-10T03:11:11;17.70;62.60
27314;DHT22;14800;48.174;9.798;2023-06-10T03:13:38;17.70;62.80
27314;DHT22;14800;48.174;9.798;2023-06-10T03:16:03;17.70;62.90
27314;DHT22;14800;48.174;9.798;2023-06-10T03:18:30;17.60;63.10
27314;DHT22;14800;48.174;9.798;2023-06-10T03:20:55;17.60;63.30
27314;DHT22;14800;48.174;9.798;2023-06-10T03:23:22;17.60;63.40
27314;DHT22;14800;48.174;9.798;2023-06-10T03:25:48;17.60;63.80
27314;DHT22;14800;48.174;9.798;2023-06-10T03:28:14;17.50;63.80
27314;DHT22;14800;48.174;9.798;2023-06-10T03:30:39;17.60;64.00
27314;DHT22;14800;48.174;9.798;2023-06-10T03:33:05;17.50;64.00
27314;DHT22;14800;48.174;9.798;2023-06-10T03:35:31;17.50;64.20
27314;DHT22;14800;48.174;9.798;2023-06-10T03:37:58;17.40;64.10
27314;DHT22;14800;48.174;9.798;2023-06-10T03:40:23;17.40;64.50
27314;DHT22;14800;48.174;9.798;2023-06-10T03:42:49;17.30;64.60
27314;DHT22;14800;48.174;9.798;2023-06-10T03:45:15;17.30;64.70
27314;DHT22;14800;48.174;9.798;2023-06-10T03:47:40;17.30;65.00
27314;DHT22;14800;48.174;9.798;2023-06-10T03:50:07;17.30;65.20
27314;DHT22;14800;48.174;9.798;2023-06-10T03:52:38;17.30;65.30
27314;DHT22;14800;48.174;9.798;2023-06-10T03:55:03;17.30;65.40
27314;DHT22;14800;48.174;9.798;2023-06-10T03:57:29;17.30;65.40
27314;DHT22;14800;48.174;9.798;2023-06-10T03:59:55;17.40;65.60
27314;DHT22;14800;48.174;9.798;2023-06-10T04:02:21;17.40;65.60
27314;DHT22;14800;48.174;9.798;2023-06-10T04:04:48;17.40;65.60
27314;DHT22;14800;48.174;9.798;2023-06-10T04:07:13;17.40;65.70
27314;DHT22;14800;48.174;9.798;2023-06-10T04:09:40;17.50;65.80
27314;DHT22;14800;48.174;9.798;2023-06-10T04:12:05;17.50;65.90
27314;DHT22;14800;48.174;9.798;2023-06-10T04:14:34;17.50;65.80
27314;DHT22;14800;48.174;9.798;2023-06-10T04:17:02;17.60;66.00
27314;DHT22;14800;48.174;9.798;2023-06-10T04:19:27;17.60;66.00
27314;DHT22;14800;48.174;9.798;2023-06-10T04:21:53;17.60;65.90
27314;DHT22;14800;48.174;9.798;2023-06-10T04:24:19;17.70;65.90
27314;DHT22;14800;48.174;9.798;2023-06-10T04:26:45;17.60;66.00
27314;DHT22;14800;48.174;9.798;2023-06-10T04:29:10;17.60;66.00
27314;DHT22;14800;48.174;9.798;2023-06-10T04:31:36;17.60;66.10
27314;DHT22;14800;48.174;9.798;2023-06-10T04:34:02;17.70;66.40
27314;DHT22;14800;48.174;9.798;2023-06-10T04:36:27;17.70;66.60
27314;DHT22;14800;48.174;9.798;2023-06-10T04:38:54;17.70;66.80
27314;DHT22;14800;48.174;9.798;2023-06-10T04:41:20;17.80;66.90
27314;DHT22;14800;48.174;9.798;2023-06-10T04:43:46;17.80;67.00
27314;DHT22;14800;48.174;9.798;2023-06-10T04:46:11;17.70;67.20
27314;DHT22;14800;48.174;9.798;2023-06-10T04:48:38;17.80;67.30
27314;DHT22;14800;48.174;9.798;2023-06-10T04:51:04;17.80;67.40
27314;DHT22;14800;48.174;9.798;2023-06-10T04:53:30;17.80;67.40
27314;DHT22;14800;48.174;9.798;2023-06-10T04:55:57;17.80;67.80
27314;DHT22;14800;48.174;9.798;2023-06-10T04:58:23;17.80;68.00
27314;DHT22;14800;48.174;9.798;2023-06-10T05:00:49;17.90;68.00
27314;DHT22;14800;48.174;9.798;2023-06-10T05:03:14;17.90;68.00
27314;DHT22;14800;48.174;9.798;2023-06-10T05:05:40;18.00;68.10
27314;DHT22;14800;48.174;9.798;2023-06-10T05:08:06;18.00;68.30
27314;DHT22;14800;48.174;9.798;2023-06-10T05:10:31;18.10;68.40
27314;DHT22;14800;48.174;9.798;2023-06-10T05:12:57;18.10;68.30
27314;DHT22;14800;48.174;9.798;2023-06-10T05:15:24;18.20;68.50
27314;DHT22;14800;48.174;9.798;2023-06-10T05:17:49;18.20;68.40
27314;DHT22;14800;48.174;9.798;2023-06-10T05:20:15;18.30;68.50
27314;DHT22;14800;48.174;9.798;2023-06-10T05:22:41;18.30;68.60
27314;DHT22;14800;48.174;9.798;2023-06-10T05:25:07;18.40;68.60
27314;DHT22;14800;48.174;9.798;2023-06-10T05:27:32;18.40;68.60
27314;DHT22;14800;48.174;9.798;2023-06-10T05:29:58;18.40;68.60
27314;DHT22;14800;48.174;9.798;2023-06-10T05:32:24;18.50;68.80
27314;DHT22;14800;48.174;9.798;2023-06-10T05:34:50;18.60;68.80
27314;DHT22;14800;48.174;9.798;2023-06-10T05:37:15;18.70;68.70
27314;DHT22;14800;48.174;9.798;2023-06-10T05:39:41;18.70;68.60
27314;DHT22;14800;48.174;9.798;2023-06-10T05:42:07;18.80;68.60
27314;DHT22;14800;48.174;9.798;2023-06-10T05:44:33;18.90;68.60
27314;DHT22;14800;48.174;9.798;2023-06-10T05:46:59;19.00;68.60
27314;DHT22;14800;48.174;9.798;2023-06-10T05:49:25;19.00;68.30
27314;DHT22;14800;48.174;9.798;2023-06-10T05:51:50;19.10;68.30
27314;DHT22;14800;48.174;9.798;2023-06-10T05:54:18;19.20;68.10
27314;DHT22;14800;48.174;9.798;2023-06-10T05:56:44;19.20;68.00
27314;DHT22;14800;48.174;9.798;2023-06-10T05:59:09;19.30;67.90
27314;DHT22;14800;48.174;9.798;2023-06-10T06:01:35;19.40;67.90
27314;DHT22;14800;48.174;9.798;2023-06-10T06:04:01;19.50;67.60
27314;DHT22;14800;48.174;9.798;2023-06-10T06:06:26;19.50;67.50
27314;DHT22;14800;48.174;9.798;2023-06-10T06:08:52;19.60;67.60
27314;DHT22;14800;48.174;9.798;2023-06-10T06:11:17;19.70;67.50
27314;DHT22;14800;48.174;9.798;2023-06-10T06:13:43;19.70;67.40
27314;DHT22;14800;48.174;9.798;2023-06-10T06:16:08;19.80;67.40
27314;DHT22;14800;48.174;9.798;2023-06-10T06:18:34;19.80;67.40
27314;DHT22;14800;48.174;9.798;2023-06-10T06:21:00;19.90;67.30
27314;DHT22;14800;48.174;9.798;2023-06-10T06:23:25;20.00;67.30
27314;DHT22;14800;48.174;9.798;2023-06-10T06:25:51;20.10;67.40
27314;DHT22;14800;48.174;9.798;2023-06-10T06:28:17;20.10;67.30
27314;DHT22;14800;48.174;9.798;2023-06-10T06:30:44;20.20;66.90
27314;DHT22;14800;48.174;9.798;2023-06-10T06:33:10;20.30;66.80
27314;DHT22;14800;48.174;9.798;2023-06-10T06:35:35;20.40;66.70
27314;DHT22;14800;48.174;9.798;2023-06-10T06:38:03;20.40;66.60
27314;DHT22;14800;48.174;9.798;2023-06-10T06:40:29;20.50;66.60
27314;DHT22;14800;48.174;9.798;2023-06-10T06:42:55;20.60;66.40
27314;DHT22;14800;48.174;9.798;2023-06-10T06:45:20;20.70;66.20
27314;DHT22;14800;48.174;9.798;2023-06-10T06:47:46;20.70;66.10
27314;DHT22;14800;48.174;9.798;2023-06-10T06:50:11;20.80;65.90
27314;DHT22;14800;48.174;9.798;2023-06-10T06:52:37;20.90;66.00
27314;DHT22;14800;48.174;9.798;2023-06-10T06:55:03;21.00;65.80
27314;DHT22;14800;48.174;9.798;2023-06-10T06:57:29;21.00;65.60
27314;DHT22;14800;48.174;9.798;2023-06-10T06:59:54;21.10;65.50
27314;DHT22;14800;48.174;9.798;2023-06-10T07:02:20;21.20;65.30
27314;DHT22;14800;48.174;9.798;2023-06-10T07:04:45;21.30;65.10
27314;DHT22;14800;48.174;9.798;2023-06-10T07:07:14;21.40;65.00
27314;DHT22;14800;48.174;9.798;2023-06-10T07:09:39;21.50;64.70
27314;DHT22;14800;48.174;9.798;2023-06-10T07:12:05;21.50;64.50
27314;DHT22;14800;48.174;9.798;2023-06-10T07:14:31;21.60;64.30
27314;DHT22;14800;48.174;9.798;2023-06-10T07:16:57;21.70;64.10
27314;DHT22;14800;48.174;9.798;2023-06-10T07:19:22;21.80;63.90
27314;DHT22;14800;48.174;9.798;2023-06-10T07:21:48;21.90;63.70
27314;DHT22;14800;48.174;9.798;2023-06-10T07:24:13;22.00;63.80
27314;DHT22;14800;48.174;9.798;2023-06-10T07:26:39;22.00;63.60
27314;DHT22;14800;48.174;9.798;2023-06-10T07:29:05;22.10;63.30
27314;DHT22;14800;48.174;9.798;2023-06-10T07:31:30;22.20;63.30
27314;DHT22;14800;48.174;9.798;2023-06-10T07:33:56;22.30;62.90
27314;DHT22;14800;48.174;9.798;2023-06-10T07:36:21;22.30;62.70
27314;DHT22;14800;48.174;9.798;2023-06-10T07:38:47;22.40;63.10
27314;DHT22;14800;48.174;9.798;2023-06-10T07:41:13;22.50;62.70
27314;DHT22;14800;48.174;9.798;2023-06-10T07:43:39;22.60;62.40
27314;DHT22;14800;48.174;9.798;2023-06-10T07:46:05;22.70;61.80
27314;DHT22;14800;48.174;9.798;2023-06-10T07:48:31;22.80;61.50
27314;DHT22;14800;48.174;9.798;2023-06-10T07:50:57;22.90;61.50
27314;DHT22;14800;48.174;9.798;2023-06-10T07:53:22;23.00;61.00
27314;DHT22;14800;48.174;9.798;2023-06-10T07:55:48;23.00;60.60
27314;DHT22;14800;48.174;9.798;2023-06-10T07:58:13;23.10;60.50
27314;DHT22;14800;48.174;9.798;2023-06-10T08:00:39;23.10;60.70
27314;DHT22;14800;48.174;9.798;2023-06-10T08:03:04;23.20;60.90
27314;DHT22;14800;48.174;9.798;2023-06-10T08:05:30;23.20;60.60
27314;DHT22;14800;48.174;9.798;2023-06-10T08:07:56;23.40;60.50
27314;DHT22;14800;48.174;9.798;2023-06-10T08:10:21;23.40;60.00
27314;DHT22;14800;48.174;9.798;2023-06-10T08:12:47;23.50;60.10
27314;DHT22;14800;48.174;9.798;2023-06-10T08:15:12;23.60;60.00
27314;DHT22;14800;48.174;9.798;2023-06-10T08:17:38;23.70;59.50
27314;DHT22;14800;48.174;9.798;2023-06-10T08:20:05;23.80;59.50
27314;DHT22;14800;48.174;9.798;2023-06-10T08:22:31;23.90;59.50
27314;DHT22;14800;48.174;9.798;2023-06-10T08:24:57;24.00;59.50
27314;DHT22;14800;48.174;9.798;2023-06-10T08:27:22;24.10;59.10
27314;DHT22;14800;48.174;9.798;2023-06-10T08:29:48;24.20;58.60
27314;DHT22;14800;48.174;9.798;2023-06-10T08:32:13;24.40;58.30
27314;DHT22;14800;48.174;9.798;2023-06-10T08:34:39;24.50;58.00
27314;DHT22;14800;48.174;9.798;2023-06-10T08:37:05;24.50;57.30
27314;DHT22;14800;48.174;9.798;2023-06-10T08:39:30;24.70;57.30
27314;DHT22;14800;48.174;9.798;2023-06-10T08:42:17;24.70;57.10
27314;DHT22;14800;48.174;9.798;2023-06-10T08:44:46;24.90;56.40
27314;DHT22;14800;48.174;9.798;2023-06-10T08:47:16;25.00;56.80
27314;DHT22;14800;48.174;9.798;2023-06-10T08:49:46;25.10;56.30
27314;DHT22;14800;48.174;9.798;2023-06-10T08:52:17;25.20;55.90
27314;DHT22;14800;48.174;9.798;2023-06-10T08:57:14;25.40;55.50
27314;DHT22;14800;48.174;9.798;2023-06-10T08:59:41;25.50;55.20
27314;DHT22;14800;48.174;9.798;2023-06-10T09:02:07;25.60;55.10
27314;DHT22;14800;48.174;9.798;2023-06-10T09:04:34;25.60;54.90
27314;DHT22;14800;48.174;9.798;2023-06-10T09:07:02;25.70;54.60
27314;DHT22;14800;48.174;9.798;2023-06-10T09:09:29;25.80;54.20
27314;DHT22;14800;48.174;9.798;2023-06-10T09:11:58;25.90;53.80
27314;DHT22;14800;48.174;9.798;2023-06-10T09:14:23;26.00;53.50
27314;DHT22;14800;48.174;9.798;2023-06-10T09:16:49;26.00;53.50
27314;DHT22;14800;48.174;9.798;2023-06-10T09:19:16;26.10;53.60
27314;DHT22;14800;48.174;9.798;2023-06-10T09:21:42;26.20;53.40
27314;DHT22;14800;48.174;9.798;2023-06-10T09:24:08;26.30;52.80
27314;DHT22;14800;48.174;9.798;2023-06-10T09:26:34;26.40;52.60
27314;DHT22;14800;48.174;9.798;2023-06-10T09:29:07;26.50;52.60
27314;DHT22;14800;48.174;9.798;2023-06-10T09:31:38;26.50;51.30
27314;DHT22;14800;48.174;9.798;2023-06-10T09:34:11;26.50;52.10
27314;DHT22;14800;48.174;9.798;2023-06-10T09:36:38;26.60;51.80
27314;DHT22;14800;48.174;9.798;2023-06-10T09:39:06;26.70;52.10
27314;DHT22;14800;48.174;9.798;2023-06-10T09:41:41;26.70;51.80
27314;DHT22;14800;48.174;9.798;2023-06-10T09:44:14;26.80;51.90
27314;DHT22;14800;48.174;9.798;2023-06-10T09:46:41;26.90;51.50
27314;DHT22;14800;48.174;9.798;2023-06-10T09:49:06;26.90;51.40
27314;DHT22;14800;48.174;9.798;2023-06-10T09:51:32;27.10;51.60
27314;DHT22;14800;48.174;9.798;2023-06-10T09:53:59;27.00;51.40
27314;DHT22;14800;48.174;9.798;2023-06-10T09:56:35;27.00;51.20
27314;DHT22;14800;48.174;9.798;2023-06-10T09:59:02;27.10;50.60
27314;DHT22;14800;48.174;9.798;2023-06-10T10:01:28;27.10;51.00
27314;DHT22;14800;48.174;9.798;2023-06-10T10:03:54;27.10;50.90
27314;DHT22;14800;48.174;9.798;2023-06-10T10:06:20;27.20;50.80
27314;DHT22;14800;48.174;9.798;2023-06-10T10:08:48;27.30;50.50
27314;DHT22;14800;48.174;9.798;2023-06-10T10:11:19;27.40;50.10
27314;DHT22;14800;48.174;9.798;2023-06-10T10:13:48;27.40;49.10
27314;DHT22;14800;48.174;9.798;2023-06-10T10:16:16;27.40;49.70
27314;DHT22;14800;48.174;9.798;2023-06-10T10:19:04;27.40;49.60
27314;DHT22;14800;48.174;9.798;2023-06-10T10:21:35;27.40;49.50
27314;DHT22;14800;48.174;9.798;2023-06-10T10:24:22;27.50;49.40
27314;DHT22;14800;48.174;9.798;2023-06-10T10:26:50;27.60;48.80
27314;DHT22;14800;48.174;9.798;2023-06-10T10:29:27;27.70;48.80
27314;DHT22;14800;48.174;9.798;2023-06-10T10:31:56;27.80;48.20
27314;DHT22;14800;48.174;9.798;2023-06-10T10:37:07;27.90;47.80
27314;DHT22;14800;48.174;9.798;2023-06-10T10:39:34;27.90;48.20
27314;DHT22;14800;48.174;9.798;2023-06-10T10:42:02;28.00;48.20
27314;DHT22;14800;48.174;9.798;2023-06-10T10:44:29;28.00;47.70
27314;DHT22;14800;48.174;9.798;2023-06-10T10:46:56;28.00;47.40
27314;DHT22;14800;48.174;9.798;2023-06-10T10:49:23;28.00;47.10
27314;DHT22;14800;48.174;9.798;2023-06-10T10:51:57;28.00;47.10
27314;DHT22;14800;48.174;9.798;2023-06-10T10:54:33;28.00;47.00
27314;DHT22;14800;48.174;9.798;2023-06-10T10:57:16;28.00;46.70
27314;DHT22;14800;48.174;9.798;2023-06-10T11:04:47;27.90;46.60
27314;DHT22;14800;48.174;9.798;2023-06-10T11:07:13;27.90;46.90
27314;DHT22;14800;48.174;9.798;2023-06-10T11:10:06;27.80;47.00
27314;DHT22;14800;48.174;9.798;2023-06-10T11:15:22;27.80;46.60
27314;DHT22;14800;48.174;9.798;2023-06-10T11:18:11;27.70;46.00
27314;DHT22;14800;48.174;9.798;2023-06-10T11:28:36;27.60;46.50
27314;DHT22;14800;48.174;9.798;2023-06-10T11:31:02;27.60;47.20
27314;DHT22;14800;48.174;9.798;2023-06-10T11:33:27;27.60;46.80
27314;DHT22;14800;48.174;9.798;2023-06-10T11:35:54;27.70;46.80
27314;DHT22;14800;48.174;9.798;2023-06-10T11:38:20;27.70;46.60
27314;DHT22;14800;48.174;9.798;2023-06-10T11:40:49;27.70;46.40
27314;DHT22;14800;48.174;9.798;2023-06-10T11:43:17;27.70;46.40
27314;DHT22;14800;48.174;9.798;2023-06-10T11:45:43;27.80;46.30
27314;DHT22;14800;48.174;9.798;2023-06-10T11:48:09;27.80;46.50
27314;DHT22;14800;48.174;9.798;2023-06-10T11:50:35;27.80;46.50
27314;DHT22;14800;48.174;9.798;2023-06-10T11:53:03;27.90;46.20
27314;DHT22;14800;48.174;9.798;2023-06-10T11:55:50;27.90;45.90
27314;DHT22;14800;48.174;9.798;2023-06-10T11:58:21;27.90;45.70
27314;DHT22;14800;48.174;9.798;2023-06-10T12:00:54;27.90;45.50
27314;DHT22;14800;48.174;9.798;2023-06-10T12:03:21;27.90;45.70
27314;DHT22;14800;48.174;9.798;2023-06-10T12:08:23;27.90;45.80
27314;DHT22;14800;48.174;9.798;2023-06-10T12:10:48;28.00;45.90
27314;DHT22;14800;48.174;9.798;2023-06-10T12:13:14;28.00;45.40
27314;DHT22;14800;48.174;9.798;2023-06-10T12:15:40;28.10;46.00
27314;DHT22;14800;48.174;9.798;2023-06-10T12:18:05;28.10;45.80
27314;DHT22;14800;48.174;9.798;2023-06-10T12:20:32;28.20;45.90
27314;DHT22;14800;48.174;9.798;2023-06-10T12:23:00;28.30;46.00
27314;DHT22;14800;48.174;9.798;2023-06-10T12:25:28;28.30;45.70
27314;DHT22;14800;48.174;9.798;2023-06-10T12:27:57;28.40;46.00
27314;DHT22;14800;48.174;9.798;2023-06-10T12:30:24;28.40;45.90
27314;DHT22;14800;48.174;9.798;2023-06-10T12:32:52;28.40;45.80
27314;DHT22;14800;48.174;9.798;2023-06-10T12:35:20;28.50;45.20
27314;DHT22;14800;48.174;9.798;2023-06-10T12:37:56;28.60;45.20
27314;DHT22;14800;48.174;9.798;2023-06-10T12:40:29;28.60;45.20
27314;DHT22;14800;48.174;9.798;2023-06-10T12:42:56;28.70;45.20
27314;DHT22;14800;48.174;9.798;2023-06-10T12:45:33;28.70;45.10
27314;DHT22;14800;48.174;9.798;2023-06-10T12:48:24;28.60;45.20
27314;DHT22;14800;48.174;9.798;2023-06-10T12:53:18;28.60;44.40
27314;DHT22;14800;48.174;9.798;2023-06-10T12:55:45;28.50;44.10
27314;DHT22;14800;48.174;9.798;2023-06-10T12:58:11;28.50;44.10
27314;DHT22;14800;48.174;9.798;2023-06-10T13:00:37;28.50;44.30
27314;DHT22;14800;48.174;9.798;2023-06-10T13:03:03;28.50;44.80
27314;DHT22;14800;48.174;9.798;2023-06-10T13:05:31;28.40;44.70
27314;DHT22;14800;48.174;9.798;2023-06-10T13:07:57;28.50;44.60
27314;DHT22;14800;48.174;9.798;2023-06-10T13:10:23;28.50;44.30
27314;DHT22;14800;48.174;9.798;2023-06-10T13:12:49;28.50;44.60
27314;DHT22;14800;48.174;9.798;2023-06-10T13:15:16;28.50;44.50
27314;DHT22;14800;48.174;9.798;2023-06-10T13:17:45;28.60;44.60
27314;DHT22;14800;48.174;9.798;2023-06-10T13:20:14;28.70;44.50
27314;DHT22;14800;48.174;9.798;2023-06-10T13:22:40;28.80;44.70
27314;DHT22;14800;48.174;9.798;2023-06-10T13:25:06;28.80;44.60
27314;DHT22;14800;48.174;9.798;2023-06-10T13:27:34;28.90;44.40
27314;DHT22;14800;48.174;9.798;2023-06-10T13:29:59;29.00;44.20
27314;DHT22;14800;48.174;9.798;2023-06-10T13:32:25;29.00;44.30
27314;DHT22;14800;48.174;9.798;2023-06-10T13:34:51;29.10;43.50
27314;DHT22;14800;48.174;9.798;2023-06-10T13:37:18;29.20;42.60
27314;DHT22;14800;48.174;9.798;2023-06-10T13:39:45;29.20;42.30
27314;DHT22;14800;48.174;9.798;2023-06-10T13:42:12;29.20;42.80
27314;DHT22;14800;48.174;9.798;2023-06-10T13:44:38;29.20;42.50
27314;DHT22;14800;48.174;9.798;2023-06-10T13:47:03;29.20;42.80
27314;DHT22;14800;48.174;9.798;2023-06-10T13:49:29;29.20;43.00
27314;DHT22;14800;48.174;9.798;2023-06-10T13:51:55;29.30;43.10
27314;DHT22;14800;48.174;9.798;2023-06-10T13:54:20;29.40;43.30
27314;DHT22;14800;48.174;9.798;2023-06-10T13:56:46;29.40;43.50
27314;DHT22;14800;48.174;9.798;2023-06-10T13:59:12;29.50;43.00
27314;DHT22;14800;48.174;9.798;2023-06-10T14:01:38;29.50;42.60
27314;DHT22;14800;48.174;9.798;2023-06-10T14:04:04;29.60;42.50
27314;DHT22;14800;48.174;9.798;2023-06-10T14:06:29;29.60;42.50
27314;DHT22;14800;48.174;9.798;2023-06-10T14:08:56;29.70;42.50
27314;DHT22;14800;48.174;9.798;2023-06-10T14:11:21;29.70;42.40
27314;DHT22;14800;48.174;9.798;2023-06-10T14:13:47;29.80;42.20
27314;DHT22;14800;48.174;9.798;2023-06-10T14:16:13;29.80;42.40
27314;DHT22;14800;48.174;9.798;2023-06-10T14:18:38;29.90;41.90
27314;DHT22;14800;48.174;9.798;2023-06-10T14:21:04;29.80;41.80
27314;DHT22;14800;48.174;9.798;2023-06-10T14:23:30;29.80;41.50
27314;DHT22;14800;48.174;9.798;2023-06-10T14:25:55;29.80;41.60
27314;DHT22;14800;48.174;9.798;2023-06-10T14:28:21;29.80;41.50
27314;DHT22;14800;48.174;9.798;2023-06-10T14:30:47;29.70;41.20
27314;DHT22;14800;48.174;9.798;2023-06-10T14:33:12;29.70;41.10
27314;DHT22;14800;48.174;9.798;2023-06-10T14:35:38;29.60;41.00
27314;DHT22;14800;48.174;9.798;2023-06-10T14:38:03;29.60;42.20
27314;DHT22;14800;48.174;9.798;2023-06-10T14:40:29;29.60;42.00
27314;DHT22;14800;48.174;9.798;2023-06-10T14:42:55;29.70;42.00
27314;DHT22;14800;48.174;9.798;2023-06-10T14:45:21;29.80;41.90
27314;DHT22;14800;48.174;9.798;2023-06-10T14:47:46;29.90;41.50
27314;DHT22;14800;48.174;9.798;2023-06-10T14:50:12;29.90;41.20
27314;DHT22;14800;48.174;9.798;2023-06-10T14:52:38;30.00;41.50
27314;DHT22;14800;48.174;9.798;2023-06-10T14:55:04;30.00;41.00
27314;DHT22;14800;48.174;9.798;2023-06-10T14:57:30;30.10;40.70
27314;DHT22;14800;48.174;9.798;2023-06-10T14:59:55;30.10;40.50
27314;DHT22;14800;48.174;9.798;2023-06-10T15:02:22;30.10;40.40
27314;DHT22;14800;48.174;9.798;2023-06-10T15:04:47;30.20;40.10
27314;DHT22;14800;48.174;9.798;2023-06-10T15:07:13;30.30;39.90
27314;DHT22;14800;48.174;9.798;2023-06-10T15:09:41;30.20;40.00
27314;DHT22;14800;48.174;9.798;2023-06-10T15:12:07;30.40;40.40
27314;DHT22;14800;48.174;9.798;2023-06-10T15:14:33;30.50;40.60
27314;DHT22;14800;48.174;9.798;2023-06-10T15:16:58;30.60;40.50
27314;DHT22;14800;48.174;9.798;2023-06-10T15:19:25;30.70;40.80
27314;DHT22;14800;48.174;9.798;2023-06-10T15:21:51;30.70;40.30
27314;DHT22;14800;48.174;9.798;2023-06-10T15:24:17;30.80;40.10
27314;DHT22;14800;48.174;9.798;2023-06-10T15:26:42;30.80;39.90
27314;DHT22;14800;48.174;9.798;2023-06-10T15:29:08;30.90;40.10
27314;DHT22;14800;48.174;9.798;2023-06-10T15:31:34;30.90;40.20
27314;DHT22;14800;48.174;9.798;2023-06-10T15:34:00;31.00;40.30
27314;DHT22;14800;48.174;9.798;2023-06-10T15:36:26;31.00;40.20
27314;DHT22;14800;48.174;9.798;2023-06-10T15:38:53;31.00;40.00
27314;DHT22;14800;48.174;9.798;2023-06-10T15:41:18;31.00;39.70
27314;DHT22;14800;48.174;9.798;2023-06-10T15:43:44;31.00;39.20
27314;DHT22;14800;48.174;9.798;2023-06-10T15:46:10;30.90;39.10
27314;DHT22;14800;48.174;9.798;2023-06-10T15:48:36;30.90;39.20
27314;DHT22;14800;48.174;9.798;2023-06-10T15:51:02;30.90;39.20
27314;DHT22;14800;48.174;9.798;2023-06-10T15:53:27;30.80;39.30
27314;DHT22;14800;48.174;9.798;2023-06-10T15:55:53;30.80;39.40
27314;DHT22;14800;48.174;9.798;2023-06-10T15:58:19;30.80;39.60